Time;durP1;ratioP1;P1;durP2;ratioP2;P2;SDS_P1;SDS_P2;PMS_P1;PMS_P2;Temp;Humidity;BMP_temperature;BMP_pressure;BME280_temperature;BME280_humidity;BME280_pressure;Samples;Min_cycle;Max_cycle;Signal;HPM_P1;HPM_P2
2022/03/27 00:01:34;;;;;;;11.93;6.85;;;;;;;8.15;62.17;101944.03;6275396;22;20012;-75
2022/03/27 00:04:17;;;;;;;14.48;7.45;;;;;;;8.02;62.35;101916.81;6278052;22;20065;-75
2022/03/27 00:06:43;;;;;;;9.38;6.15;;;;;;;8.26;62.79;101941.69;6279877;22;20591;-75
2022/03/27 00:09:40;;;;;;;12.82;7.35;;;;;;;8.32;62.98;101946.28;6275759;22;19999;-75
2022/03/27 00:12:09;;;;;;;11.82;7.05;;;;;;;8.34;62.49;101934.13;6146732;22;20653;-75
2022/03/27 00:14:34;;;;;;;14.30;8.50;;;;;;;8.42;63.48;101934.94;6276723;22;20462;-71
2022/03/27 00:17:00;;;;;;;15.82;9.75;;;;;;;8.46;63.83;101945.22;6274896;22;20011;-73
2022/03/27 00:19:27;;;;;;;14.85;7.75;;;;;;;8.38;62.94;101920.88;6274110;22;20055;-73
2022/03/27 00:21:52;;;;;;;18.23;8.18;;;;;;;8.50;63.90;101940.19;6281267;22;20082;-74
2022/03/27 00:24:27;;;;;;;14.18;8.13;;;;;;;8.43;63.65;101915.66;6279477;22;20011;-75
2022/03/27 00:26:53;;;;;;;14.45;8.40;;;;;;;8.55;63.63;101935.75;6281302;22;20015;-76
2022/03/27 00:29:19;;;;;;;10.52;6.32;;;;;;;8.42;63.87;101905.78;6248396;22;20414;-72
2022/03/27 00:31:45;;;;;;;12.35;7.10;;;;;;;8.53;63.92;101924.22;6275611;22;19999;-71
2022/03/27 00:34:19;;;;;;;12.00;6.80;;;;;;;8.34;63.53;101901.41;6272762;22;20016;-73
2022/03/27 00:36:45;;;;;;;17.25;8.82;;;;;;;8.29;64.15;101908.56;6224026;22;20067;-73
2022/03/27 00:39:11;;;;;;;16.10;8.80;;;;;;;8.40;64.07;101905.16;6246950;22;20038;-71
2022/03/27 00:41:36;;;;;;;18.30;9.48;;;;;;;8.50;64.67;101916.50;6274401;22;19999;-71
2022/03/27 00:44:19;;;;;;;15.95;9.90;;;;;;;8.44;64.55;101916.47;6274859;22;20679;-72
2022/03/27 00:46:47;;;;;;;12.48;7.78;;;;;;;8.41;64.93;101909.59;6274369;22;20027;-74
2022/03/27 00:49:12;;;;;;;15.57;8.18;;;;;;;8.51;64.38;101915.44;6273470;22;20060;-72
2022/03/27 00:51:38;;;;;;;24.98;10.85;;;;;;;8.37;64.94;101900.16;6272191;22;20027;-71
2022/03/27 00:54:04;;;;;;;15.35;9.63;;;;;;;8.29;65.30;101914.00;6275639;22;20019;-72
2022/03/27 00:56:33;;;;;;;19.50;10.35;;;;;;;8.06;65.58;101907.16;6280115;22;20025;-72
2022/03/27 00:58:59;;;;;;;20.92;10.82;;;;;;;7.91;65.54;101912.81;6256698;22;20019;-71
2022/03/27 01:01:35;;;;;;;17.20;10.18;;;;;;;7.90;66.28;101926.66;6277765;22;20539;-71
2022/03/27 01:04:09;;;;;;;19.27;9.30;;;;;;;7.74;66.82;101923.34;6280683;22;20000;-71
2022/03/27 01:06:35;;;;;;;19.38;10.73;;;;;;;7.66;66.41;101931.72;6271094;22;20010;-72
2022/03/27 01:11:49;;;;;;;16.67;9.77;;;;;;;7.34;67.57;101913.28;6272690;22;20792;-73
2022/03/27 01:14:31;;;;;;;20.10;9.77;;;;;;;7.35;67.20;101930.44;6278701;22;20019;-72
2022/03/27 01:17:13;;;;;;;17.08;8.40;;;;;;;7.20;68.15;101905.28;6212878;23;20028;-73
2022/03/27 01:19:46;;;;;;;17.77;9.85;;;;;;;7.23;68.24;101918.47;6217235;23;20007;-70
2022/03/27 01:22:13;;;;;;;18.73;9.45;;;;;;;7.18;67.98;101910.13;6213965;23;20004;-71
2022/03/27 01:24:41;;;;;;;15.23;10.02;;;;;;;7.18;69.08;101923.72;6215508;23;20096;-72
2022/03/27 01:27:10;;;;;;;30.13;14.52;;;;;;;7.01;70.01;101906.94;6242250;23;20007;-71
2022/03/27 01:29:43;;;;;;;16.65;9.43;;;;;;;6.95;69.40;101911.31;6216239;23;20383;-72
2022/03/27 01:32:14;;;;;;;28.00;16.05;;;;;;;6.94;70.01;101912.38;6215234;23;20422;-70
2022/03/27 01:35:13;;;;;;;22.05;12.98;;;;;;;6.91;69.97;101924.50;6218068;23;20012;-72
2022/03/27 01:37:39;;;;;;;19.02;10.48;;;;;;;6.69;70.03;101896.63;6192252;23;20044;-72
2022/03/27 01:40:17;;;;;;;18.60;10.05;;;;;;;6.69;70.36;101914.78;6217452;23;20004;-72
2022/03/27 01:42:43;;;;;;;17.98;9.60;;;;;;;6.54;70.64;101893.19;6242839;23;20031;-72
2022/03/27 01:45:10;;;;;;;12.77;7.35;;;;;;;6.55;70.55;101903.88;6192680;23;20031;-72
2022/03/27 01:47:45;;;;;;;13.73;8.02;;;;;;;6.46;70.29;101892.34;6241944;23;20071;-72
2022/03/27 01:50:11;;;;;;;11.55;7.00;;;;;;;6.42;69.73;101904.63;6244817;23;20019;-71
2022/03/27 01:52:37;;;;;;;13.13;8.27;;;;;;;6.42;70.75;101904.63;6241865;23;20007;-72
2022/03/27 01:55:08;;;;;;;20.58;11.55;;;;;;;6.41;70.70;101903.00;6217336;23;20565;-71
2022/03/27 01:57:37;;;;;;;24.88;12.90;;;;;;;6.41;71.42;101903.00;6216965;23;20498;-72
2022/03/27 02:00:05;;;;;;;15.80;8.43;;;;;;;6.44;71.49;101908.00;6217866;23;20411;-72
2022/03/27 02:02:31;;;;;;;19.23;9.13;;;;;;;6.48;71.71;101905.72;6190842;23;20415;-72
2022/03/27 02:05:01;;;;;;;14.43;8.27;;;;;;;6.48;70.75;101913.88;6194373;23;20027;-72
2022/03/27 02:07:27;;;;;;;16.52;7.82;;;;;;;6.38;70.66;101887.09;6191072;23;20395;-72
2022/03/27 02:09:52;;;;;;;15.52;8.57;;;;;;;6.50;71.37;101905.50;6166959;23;20012;-72
2022/03/27 02:12:20;;;;;;;17.63;10.80;;;;;;;6.39;72.00;101887.91;6219358;23;19997;-71
2022/03/27 02:14:50;;;;;;;24.20;12.50;;;;;;;6.47;72.22;101887.75;6220941;22;20004;-72
2022/03/27 02:17:15;;;;;;;14.88;9.10;;;;;;;6.57;71.57;101895.50;6245992;22;20046;-72
2022/03/27 02:19:41;;;;;;;17.80;10.65;;;;;;;6.57;72.20;101895.50;6273130;22;20000;-71
2022/03/27 02:22:09;;;;;;;20.13;11.68;;;;;;;6.44;72.38;101869.16;6247418;22;20008;-73
2022/03/27 02:24:44;;;;;;;17.25;9.60;;;;;;;6.46;72.04;101873.31;6242892;22;20003;-71
2022/03/27 02:27:09;;;;;;;21.40;11.85;;;;;;;6.57;71.96;101873.75;6274132;22;20232;-72
2022/03/27 02:29:37;;;;;;;28.88;13.25;;;;;;;6.59;72.51;101883.41;6274085;22;20019;-72
2022/03/27 02:32:10;;;;;;;17.80;10.32;;;;;;;6.62;72.03;101887.59;6274862;22;20050;-73
2022/03/27 02:34:36;;;;;;;22.35;10.93;;;;;;;6.53;72.54;101876.06;6259975;22;20002;-72
2022/03/27 02:37:09;;;;;;;18.33;10.18;;;;;;;6.50;72.68;101881.06;6276233;22;20000;-72
2022/03/27 02:39:34;;;;;;;16.63;9.25;;;;;;;6.55;72.00;101898.44;6247442;22;19995;-73
2022/03/27 02:42:00;;;;;;;15.13;8.77;;;;;;;6.50;72.73;101900.06;6276017;22;20339;-72
2022/03/27 02:44:33;;;;;;;13.32;8.10;;;;;;;6.39;72.13;101891.47;6274166;22;20007;-72
2022/03/27 02:46:59;;;;;;;14.02;8.57;;;;;;;6.28;72.95;101878.47;6273515;22;20079;-73
2022/03/27 02:49:24;;;;;;;19.73;10.70;;;;;;;6.28;73.30;101878.47;6274155;22;20031;-71
2022/03/27 02:51:50;;;;;;;14.35;7.85;;;;;;;6.22;72.99;101876.53;6275166;22;20008;-72
2022/03/27 02:54:34;;;;;;;16.08;8.18;;;;;;;6.18;73.85;101864.44;6273475;22;20014;-73
2022/03/27 02:57:08;;;;;;;20.83;11.90;;;;;;;6.32;73.92;101887.03;6247913;22;20426;-71
2022/03/27 02:59:52;;;;;;;26.00;13.68;;;;;;;6.14;74.00;101855.00;6251432;22;20087;-72
2022/03/27 03:02:38;;;;;;;26.90;14.13;;;;;;;6.31;74.67;101878.06;6249900;22;20087;-73
2022/03/27 03:05:19;;;;;;;22.58;12.30;;;;;;;6.17;74.05;101857.31;6274419;22;20077;-72
2022/03/27 03:07:45;;;;;;;17.55;10.15;;;;;;;6.22;74.71;101881.97;6274563;22;20003;-71
2022/03/27 03:10:16;;;;;;;17.35;8.85;;;;;;;6.11;74.02;101870.63;6273494;22;20018;-72
2022/03/27 03:12:42;;;;;;;16.25;9.75;;;;;;;6.08;74.01;101870.22;6274802;22;20318;-72
2022/03/27 03:15:10;;;;;;;19.58;10.52;;;;;;;5.93;75.07;101851.31;6271403;22;20027;-73
2022/03/27 03:20:53;;;;;;;25.35;13.30;;;;;;;6.00;75.55;101865.78;6261803;22;20327;-71
2022/03/27 03:23:18;;;;;;;24.48;13.63;;;;;;;5.96;75.63;101872.63;6273368;22;20018;-73
2022/03/27 03:25:46;;;;;;;23.73;12.68;;;;;;;6.06;75.64;101883.13;6273334;22;20045;-72
2022/03/27 03:28:19;;;;;;;22.58;13.20;;;;;;;5.86;75.80;101855.84;6271401;22;20018;-72
2022/03/27 03:30:45;;;;;;;24.80;13.68;;;;;;;5.85;76.30;101862.31;6272777;22;20011;-71
2022/03/27 03:33:11;;;;;;;21.77;12.00;;;;;;;5.93;76.63;101873.03;6273595;22;20000;-72
2022/03/27 03:35:44;;;;;;;20.45;11.48;;;;;;;5.90;76.83;101868.00;6248707;22;20014;-72
2022/03/27 03:38:10;;;;;;;23.27;13.40;;;;;;;6.00;76.53;101890.25;6273074;22;20006;-71
2022/03/27 03:40:35;;;;;;;24.27;12.95;;;;;;;5.91;76.61;101873.22;6274599;22;20004;-72
2022/03/27 03:43:01;;;;;;;22.30;11.30;;;;;;;6.00;77.14;101890.25;6279090;22;20014;-71
2022/03/27 03:45:27;;;;;;;26.88;13.50;;;;;;;5.93;76.39;101878.47;6250283;22;20011;-73
2022/03/27 03:47:52;;;;;;;26.17;13.90;;;;;;;5.98;77.08;101886.88;6251450;22;20338;-72
2022/03/27 03:50:18;;;;;;;28.65;13.75;;;;;;;5.87;77.19;101865.66;6250623;22;20509;-72
2022/03/27 03:52:43;;;;;;;30.65;13.73;;;;;;;5.94;77.85;101882.84;6274096;22;20011;-73
2022/03/27 03:55:09;;;;;;;26.88;14.30;;;;;;;5.83;77.89;101867.13;6247189;22;20086;-71
2022/03/27 03:57:34;;;;;;;23.05;12.57;;;;;;;5.83;77.84;101861.69;6219524;22;20015;-72
2022/03/27 04:00:02;;;;;;;28.98;13.50;;;;;;;5.91;78.14;101881.38;6272325;22;20082;-72
2022/03/27 04:02:30;;;;;;;22.33;11.48;;;;;;;5.89;78.29;101877.19;6276737;22;20007;-72
2022/03/27 04:04:55;;;;;;;25.05;12.82;;;;;;;5.87;78.24;101881.94;6271870;22;20034;-72
2022/03/27 04:07:21;;;;;;;31.58;13.95;;;;;;;5.84;79.07;101874.22;6274826;22;20007;-72
2022/03/27 04:09:46;;;;;;;23.15;12.43;;;;;;;5.77;78.31;101869.56;6286417;22;20015;-72
2022/03/27 04:12:12;;;;;;;25.08;12.60;;;;;;;5.69;79.13;101848.00;6294450;22;20003;-73
2022/03/27 04:14:48;;;;;;;;;;;;;;;;;;;;;
2022/03/27 04:17:29;;;;;;;22.50;12.48;;;;;;;5.55;79.16;101829.97;6276352;22;20095;-71
2022/03/27 04:19:57;;;;;;;17.65;10.57;;;;;;;5.79;78.67;101866.66;6247316;22;20493;-72
2022/03/27 04:22:23;;;;;;;22.52;11.23;;;;;;;5.62;78.55;101844.41;6222418;22;20015;-72
2022/03/27 04:24:53;;;;;;;23.98;10.30;;;;;;;5.68;78.76;101857.22;6221208;22;20088;-73
2022/03/27 04:27:19;;;;;;;19.65;11.15;;;;;;;5.66;78.34;101859.25;6271677;22;20671;-72
2022/03/27 04:29:51;;;;;;;21.65;10.57;;;;;;;5.54;78.55;101847.28;6249985;22;20058;-75
2022/03/27 04:32:17;;;;;;;20.35;11.02;;;;;;;5.63;79.59;101870.53;6273507;22;20012;-73
2022/03/27 04:34:50;;;;;;;16.65;8.85;;;;;;;5.48;78.87;101843.50;6271228;22;20011;-74
2022/03/27 04:37:16;;;;;;;21.17;11.52;;;;;;;5.59;79.76;101856.53;6221596;22;20020;-72
2022/03/27 04:39:42;;;;;;;18.10;10.50;;;;;;;5.61;79.62;101867.19;6271605;22;20026;-72
2022/03/27 04:42:09;;;;;;;16.40;9.50;;;;;;;5.57;79.30;101852.31;6242016;22;20326;-70
2022/03/27 04:44:36;;;;;;;16.50;9.32;;;;;;;5.54;78.84;101848.13;6270404;22;20019;-71
2022/03/27 04:47:01;;;;;;;19.80;9.20;;;;;;;5.45;78.74;101821.31;6266589;22;20062;-74
2022/03/27 04:49:30;;;;;;;11.70;6.85;;;;;;;5.57;78.79;101844.19;6271531;22;20008;-74
2022/03/27 04:51:56;;;;;;;17.23;9.07;;;;;;;5.52;78.99;101830.34;6246198;22;20084;-73
2022/03/27 04:54:24;;;;;;;15.48;8.82;;;;;;;5.50;78.88;101830.56;6246691;22;20334;-73
2022/03/27 04:56:50;;;;;;;14.77;8.55;;;;;;;5.69;78.97;101849.91;6274384;22;20087;-72
2022/03/27 04:59:16;;;;;;;12.07;7.22;;;;;;;5.70;79.06;101852.41;6243136;22;20385;-72
2022/03/27 05:01:42;;;;;;;11.73;6.40;;;;;;;5.69;78.93;101855.31;6272071;22;20016;-75
2022/03/27 05:04:09;;;;;;;9.38;5.93;;;;;;;5.64;78.50;101853.22;6222142;22;20087;-73
2022/03/27 05:06:36;;;;;;;14.15;8.55;;;;;;;5.54;79.07;101844.56;6271204;22;20015;-71
2022/03/27 05:09:02;;;;;;;15.57;8.73;;;;;;;5.49;78.80;101841.59;6270783;22;20007;-73
2022/03/27 05:11:37;;;;;;;13.15;7.57;;;;;;;5.47;78.50;101847.22;6269793;22;20010;-73
2022/03/27 05:14:02;;;;;;;13.27;7.20;;;;;;;5.53;79.21;101859.16;6274600;22;20012;-74
2022/03/27 05:16:43;;;;;;;;;;;;;;;;;;;;;
2022/03/27 05:19:09;;;;;;;16.92;8.95;;;;;;;5.36;78.76;101840.47;6276409;22;20393;-69
2022/03/27 05:21:37;;;;;;;15.75;8.20;;;;;;;5.39;79.38;101850.94;6273260;22;20091;-70
2022/03/27 05:24:06;;;;;;;16.77;8.30;;;;;;;5.39;78.70;101855.53;6277014;22;20554;-71
2022/03/27 05:26:34;;;;;;;12.43;7.10;;;;;;;5.24;79.37;101834.75;6277091;22;20318;-72
2022/03/27 05:29:00;;;;;;;12.60;6.60;;;;;;;5.36;79.09;101859.47;6273932;22;20006;-72
2022/03/27 05:31:25;;;;;;;14.95;8.05;;;;;;;5.22;79.41;101838.69;6225207;22;20008;-70
2022/03/27 05:33:51;;;;;;;14.23;8.05;;;;;;;5.28;79.13;101839.78;6278111;22;20018;-72
2022/03/27 05:36:26;;;;;;;16.63;7.45;;;;;;;5.24;79.10;101842.03;6277981;22;20018;-72
2022/03/27 05:38:52;;;;;;;14.95;7.68;;;;;;;5.22;79.54;101844.13;6253137;22;20452;-70
2022/03/27 05:41:18;;;;;;;15.13;7.65;;;;;;;5.31;79.29;101855.66;6277829;22;19996;-71
2022/03/27 05:43:46;;;;;;;13.02;7.38;;;;;;;5.12;79.22;101839.00;6271436;22;20027;-71
2022/03/27 05:46:11;;;;;;;13.80;7.40;;;;;;;5.10;80.07;101834.84;6252166;22;20027;-73
2022/03/27 05:48:36;;;;;;;18.92;10.45;;;;;;;5.19;80.62;101858.06;6252419;22;20014;-69
2022/03/27 05:51:02;;;;;;;17.35;9.77;;;;;;;5.16;80.43;101851.16;6292638;22;19996;-71
2022/03/27 05:53:31;;;;;;;16.35;9.77;;;;;;;5.21;80.36;101847.84;6296198;22;20030;-73
2022/03/27 05:56:00;;;;;;;21.27;9.23;;;;;;;5.23;80.28;101845.81;6290219;22;20073;-73
2022/03/27 05:58:35;;;;;;;15.27;8.15;;;;;;;5.03;80.23;101807.66;6282962;22;20026;-73
2022/03/27 06:01:04;;;;;;;12.85;6.95;;;;;;;5.31;80.38;101852.94;6284863;22;20038;-70
2022/03/27 06:03:30;;;;;;;10.93;6.80;;;;;;;5.28;80.24;101854.19;6275926;22;20007;-71
2022/03/27 06:05:55;;;;;;;17.77;9.38;;;;;;;5.40;80.43;101863.47;6273909;22;20015;-70
2022/03/27 06:08:21;;;;;;;13.82;8.35;;;;;;;5.44;80.21;101863.06;6273412;22;20414;-70
2022/03/27 06:10:49;;;;;;;17.30;9.80;;;;;;;5.43;79.72;101862.22;6274239;22;20480;-70
2022/03/27 06:13:16;;;;;;;13.68;7.43;;;;;;;5.45;79.89;101859.31;6275303;22;20012;-70
2022/03/27 06:15:42;;;;;;;20.70;8.70;;;;;;;5.48;79.83;101864.38;6272858;22;20042;-71
2022/03/27 06:18:11;;;;;;;12.88;7.65;;;;;;;5.50;79.92;101856.84;6274872;22;20004;-72
2022/03/27 06:20:37;;;;;;;12.73;7.72;;;;;;;5.52;80.10;101866.47;6273819;22;20000;-70
2022/03/27 06:23:03;;;;;;;14.45;7.05;;;;;;;5.53;79.44;101856.47;6271926;22;20064;-70
2022/03/27 06:25:29;;;;;;;14.63;8.23;;;;;;;5.62;79.87;101863.41;6275996;22;20310;-72
2022/03/27 06:27:56;;;;;;;19.15;9.25;;;;;;;5.69;79.33;101864.28;6275110;22;19999;-71
2022/03/27 06:30:24;;;;;;;19.33;8.93;;;;;;;5.79;79.72;101868.56;6274072;22;20004;-71
2022/03/27 06:32:51;;;;;;;18.38;9.48;;;;;;;5.79;79.44;101858.53;6277800;22;20029;-71
2022/03/27 06:35:19;;;;;;;15.05;8.73;;;;;;;5.95;79.90;101868.22;6270582;22;20397;-72
2022/03/27 06:37:45;;;;;;;11.25;6.82;;;;;;;5.98;78.72;101872.47;6277978;22;20003;-71
2022/03/27 06:40:13;;;;;;;11.23;6.30;;;;;;;5.99;78.99;101866.81;6276450;22;20000;-71
2022/03/27 06:42:39;;;;;;;12.40;7.47;;;;;;;6.06;78.50;101866.84;6248379;22;20011;-71
2022/03/27 06:45:06;;;;;;;15.13;7.80;;;;;;;6.16;78.31;101866.50;6275800;22;20011;-72
2022/03/27 06:47:33;;;;;;;16.45;8.40;;;;;;;6.24;78.99;101860.91;6276419;22;20503;-70
2022/03/27 06:50:02;;;;;;;17.40;8.65;;;;;;;6.34;78.04;101864.06;6275671;22;20048;-70
2022/03/27 06:52:28;;;;;;;12.00;7.03;;;;;;;6.40;77.85;101868.69;6248369;22;20062;-71
2022/03/27 06:55:05;;;;;;;13.32;7.72;;;;;;;6.50;77.92;101872.91;6277349;22;20006;-71
2022/03/27 06:57:33;;;;;;;16.55;8.57;;;;;;;6.42;77.73;101842.13;6274826;22;20018;-70
2022/03/27 07:05:59;;;;;;;11.57;6.43;;;;;;;6.84;77.09;101879.28;6216896;23;20016;-71
2022/03/27 07:08:27;;;;;;;16.38;9.05;;;;;;;6.80;76.93;101852.53;6169840;23;20012;-69
2022/03/27 07:10:56;;;;;;;20.48;8.88;;;;;;;6.97;77.02;101852.13;6217999;23;20005;-70
2022/03/27 07:13:34;;;;;;;;;;;;;;;;;;;;;
2022/03/27 07:23:34;;;;;;;16.50;8.38;;;;;;;7.59;76.03;101870.97;5982586;23;20008;-74
2022/03/27 07:25:59;;;;;;;11.93;7.20;;;;;;;7.56;75.52;101849.63;5983524;24;20011;-72
2022/03/27 07:28:30;;;;;;;21.05;8.57;;;;;;;7.75;75.92;101869.69;6016621;23;20011;-71
2022/03/27 07:30:59;;;;;;;11.57;7.07;;;;;;;7.94;75.11;101873.44;6134151;23;20013;-71
2022/03/27 07:33:37;;;;;;;13.02;6.65;;;;;;;8.05;75.32;101870.06;6103903;23;20076;-71
2022/03/27 07:36:08;;;;;;;14.38;6.45;;;;;;;8.19;73.83;101874.44;6122743;22;20083;-71
2022/03/27 07:38:34;;;;;;;13.95;7.05;;;;;;;8.33;73.81;101877.09;6273522;22;20087;-71
2022/03/27 08:38:57;;;;;;;9.50;4.70;;;;;;;25.44;33.06;101899.13;6252361;22;20028;-73
2022/03/27 08:41:23;;;;;;;9.85;5.68;;;;;;;26.40;30.55;101891.53;6247596;23;20012;-77
2022/03/27 08:47:32;;;;;;;;;;;;;;;;;;;;;
2022/03/27 08:54:03;;;;;;;;;;;;;;;;;;;;;
2022/03/27 08:56:35;;;;;;;7.13;4.75;;;;;;;32.01;23.12;101889.09;6257695;22;20469;-75
2022/03/27 08:59:19;;;;;;;4.82;3.65;;;;;;;33.08;22.16;101893.88;6248314;23;20023;-75
2022/03/27 09:01:58;;;;;;;;;;;;;;;;;;;;;
2022/03/27 09:05:14;;;;;;;8.45;4.95;;;;;;;34.71;20.00;101894.09;6248054;23;20040;-77
2022/03/27 09:11:17;;;;;;;;;;;;;;;;;;;;;
2022/03/27 09:14:03;;;;;;;6.13;4.18;;;;;;;35.85;18.33;101881.47;6152874;23;20081;-76
2022/03/27 09:16:28;;;;;;;7.10;5.28;;;;;;;35.96;16.77;101896.47;6200414;22;20004;-73
2022/03/27 09:19:01;;;;;;;9.52;5.70;;;;;;;35.21;17.63;101902.84;6243695;23;20088;-77
2022/03/27 09:21:27;;;;;;;5.07;3.47;;;;;;;33.71;19.18;101904.28;6243321;22;20110;-75
2022/03/27 09:24:07;;;;;;;8.60;5.45;;;;;;;32.21;19.96;101891.84;6237813;23;20023;-75
2022/03/27 09:26:32;;;;;;;7.72;4.80;;;;;;;30.93;21.70;101890.66;6240670;23;20433;-74
2022/03/27 09:29:10;;;;;;;7.50;4.15;;;;;;;30.32;22.46;101911.84;6242242;23;20004;-73
2022/03/27 09:31:37;;;;;;;6.70;4.47;;;;;;;29.87;23.22;101899.84;6241122;23;19996;-73
2022/03/27 09:34:02;;;;;;;9.65;6.28;;;;;;;29.95;22.62;101906.53;6215399;23;20011;-72
2022/03/27 09:36:39;;;;;;;7.25;4.60;;;;;;;30.22;23.06;101892.66;6241901;23;20308;-71
2022/03/27 09:39:17;;;;;;;7.68;5.00;;;;;;;30.43;22.10;101904.50;6243206;22;20043;-73
2022/03/27 09:41:59;;;;;;;11.00;5.22;;;;;;;31.01;22.16;101902.13;6243087;22;20000;-71
2022/03/27 09:44:32;;;;;;;8.55;5.97;;;;;;;31.42;21.81;101897.69;6242104;23;20015;-71
2022/03/27 09:47:07;;;;;;;6.60;4.75;;;;;;;31.90;21.32;101896.56;6244177;22;20025;-74
2022/03/27 09:49:40;;;;;;;8.65;5.07;;;;;;;32.44;20.47;101901.09;6241711;22;20342;-74
2022/03/27 09:52:10;;;;;;;4.57;3.53;;;;;;;33.16;19.96;101904.06;6242189;23;20097;-74
2022/03/27 09:54:58;;;;;;;4.53;3.38;;;;;;;33.95;19.73;101901.28;6242620;22;20372;-72
2022/03/27 09:57:31;;;;;;;8.07;5.00;;;;;;;33.70;19.59;101907.50;6244977;22;20306;-72
2022/03/27 10:00:21;;;;;;;4.75;3.58;;;;;;;34.31;19.35;101893.06;6243761;23;20419;-73
2022/03/27 10:02:49;;;;;;;7.75;4.60;;;;;;;35.00;18.51;101902.78;6216620;23;20374;-71
2022/03/27 10:05:19;;;;;;;6.97;4.85;;;;;;;35.34;18.34;101891.13;6244806;23;20035;-70
2022/03/27 10:07:47;;;;;;;7.22;5.10;;;;;;;35.42;17.99;101878.56;6240494;23;20032;-71
2022/03/27 10:10:20;;;;;;;4.65;2.75;;;;;;;35.97;17.87;101872.50;6243084;23;20024;-69
2022/03/27 10:12:49;;;;;;;6.63;3.50;;;;;;;36.66;17.31;101884.56;6217581;23;20020;-70
2022/03/27 10:15:26;;;;;;;5.35;4.35;;;;;;;36.67;17.07;101871.97;6242416;23;20004;-70
2022/03/27 10:17:56;;;;;;;5.10;3.63;;;;;;;36.75;17.00;101871.94;6242246;22;20016;-71
2022/03/27 10:20:31;;;;;;;5.75;3.97;;;;;;;36.94;16.93;101877.16;6241066;22;20061;-70
2022/03/27 10:23:03;;;;;;;5.78;4.13;;;;;;;37.70;16.14;101882.38;6241730;23;20483;-69
2022/03/27 10:25:40;;;;;;;4.90;3.78;;;;;;;38.20;15.98;101870.56;6242373;22;20061;-70
2022/03/27 10:28:07;;;;;;;7.32;5.80;;;;;;;38.96;14.98;101881.13;6244277;23;20008;-71
2022/03/27 10:30:33;;;;;;;4.15;2.75;;;;;;;39.44;15.28;101877.16;6238601;23;20018;-69
2022/03/27 10:33:02;;;;;;;5.45;4.05;;;;;;;39.94;14.67;101883.28;6238552;22;20004;-70
2022/03/27 10:35:51;;;;;;;8.05;3.67;;;;;;;39.92;14.79;101875.13;6238982;23;20427;-71
2022/03/27 10:38:29;;;;;;;5.32;3.47;;;;;;;40.68;14.48;101868.00;6240065;22;20016;-72
2022/03/27 10:41:03;;;;;;;8.98;4.28;;;;;;;40.82;13.90;101853.34;6238358;23;20012;-71
2022/03/27 10:43:34;;;;;;;4.57;3.63;;;;;;;41.32;13.63;101867.81;6239173;22;20028;-71
2022/03/27 10:46:19;;;;;;;3.90;2.60;;;;;;;41.62;13.59;101872.44;6238205;22;20011;-72
2022/03/27 10:49:15;;;;;;;5.85;3.75;;;;;;;41.61;13.28;101858.53;6239639;23;20011;-72
2022/03/27 10:52:06;;;;;;;7.03;4.80;;;;;;;42.13;12.93;101866.19;6218182;23;20008;-71
2022/03/27 10:54:31;;;;;;;4.15;3.60;;;;;;;42.32;12.72;101861.56;6213753;23;20024;-72
2022/03/27 10:57:05;;;;;;;4.97;4.03;;;;;;;42.77;12.16;101862.72;6212161;23;20322;-72
2022/03/27 10:59:43;;;;;;;5.35;3.65;;;;;;;42.81;12.72;101848.25;6218188;23;20084;-72
2022/03/27 11:02:11;;;;;;;5.57;4.40;;;;;;;42.73;12.24;101850.56;6241811;23;20019;-71
2022/03/27 11:04:38;;;;;;;5.22;4.05;;;;;;;42.69;12.40;101838.34;6242365;23;20015;-70
2022/03/27 11:07:16;;;;;;;6.57;5.40;;;;;;;42.88;12.00;101840.19;6240604;23;20004;-69
2022/03/27 11:09:46;;;;;;;4.07;2.97;;;;;;;42.73;12.33;101839.06;6242388;23;20474;-71
2022/03/27 11:12:30;;;;;;;4.97;3.70;;;;;;;43.34;12.01;101834.25;6241469;23;20031;-70
2022/03/27 11:15:06;;;;;;;;;;;;;;;44.18;11.85;101835.84;6242182;23;20000;-71
2022/03/27 11:17:31;;;;;;;11.85;4.45;;;;;;;44.47;10.93;101837.69;6214140;23;19912;-71
2022/03/27 11:19:58;;;;;;;4.72;3.97;;;;;;;44.54;10.92;101831.66;6216312;23;20102;-70
2022/03/27 11:22:53;;;;;;;5.60;3.88;;;;;;;44.51;11.04;101829.72;6245204;23;20000;-70
2022/03/27 11:25:35;;;;;;;6.50;2.97;;;;;;;44.67;11.46;101831.56;6242527;23;20004;-70
2022/03/27 11:28:07;;;;;;;5.10;3.22;;;;;;;44.98;11.12;101827.88;6214910;23;20003;-70
2022/03/27 11:30:55;;;;;;;6.93;4.57;;;;;;;44.03;11.19;101823.25;6214796;23;20041;-74
2022/03/27 11:33:21;;;;;;;5.00;4.05;;;;;;;43.18;11.90;101817.09;6206941;23;20004;-72
2022/03/27 11:36:07;;;;;;;4.25;3.78;;;;;;;43.62;11.46;101823.03;6241563;23;20007;-72
2022/03/27 11:38:58;;;;;;;4.60;2.97;;;;;;;44.10;11.61;101822.97;6218066;23;20016;-73
2022/03/27 11:41:38;;;;;;;4.20;3.30;;;;;;;45.07;11.18;101818.47;6215860;23;20099;-72
2022/03/27 11:44:23;;;;;;;3.55;2.47;;;;;;;45.94;10.31;101816.41;6238371;23;20059;-70
2022/03/27 11:47:01;;;;;;;6.05;3.53;;;;;;;46.77;9.96;101811.75;6213559;23;20087;-71
2022/03/27 11:49:38;;;;;;;4.53;3.38;;;;;;;46.58;9.72;101817.56;6211742;23;20581;-71
2022/03/27 11:52:08;;;;;;;5.43;3.70;;;;;;;46.83;9.66;101809.81;6240838;23;20014;-71
2022/03/27 11:54:35;;;;;;;4.85;3.70;;;;;;;45.16;10.23;101809.03;6211315;23;20018;-70
2022/03/27 11:57:02;;;;;;;5.50;3.75;;;;;;;43.92;11.09;101804.28;6249422;23;20083;-77
2022/03/27 11:59:28;;;;;;;5.05;3.80;;;;;;;43.93;11.20;101807.97;6251565;23;20056;-78
2022/03/27 12:01:58;;;;;;;5.80;4.88;;;;;;;43.43;11.30;101807.66;6259414;23;20059;-77
2022/03/27 12:04:27;;;;;;;4.63;3.55;;;;;;;42.89;12.08;101801.56;6258527;23;20052;-79
2022/03/27 12:06:58;;;;;;;2.83;2.53;;;;;;;43.93;11.77;101799.34;6261856;23;20083;-77
2022/03/27 12:09:29;;;;;;;3.45;2.47;;;;;;;45.97;10.59;101803.88;6235789;23;19988;-75
2022/03/27 12:12:16;;;;;;;3.78;3.38;;;;;;;46.13;10.29;101793.25;6236304;23;20090;-78
2022/03/27 12:15:39;;;;;;;4.05;3.50;;;;;;;46.06;10.21;101793.59;6225972;23;20068;-76
2022/03/27 12:21:44;;;;;;;6.38;4.53;;;;;;;46.64;9.71;101771.47;6106150;23;20489;-75
2022/03/27 12:24:18;;;;;;;4.57;4.00;;;;;;;47.15;9.11;101787.16;6221405;23;20076;-76
2022/03/27 12:29:43;;;;;;;4.45;3.08;;;;;;;47.08;9.21;101776.72;6249629;23;20329;-74
2022/03/27 12:32:25;;;;;;;6.07;3.63;;;;;;;47.41;8.87;101780.91;6247344;23;20038;-76
2022/03/27 12:35:00;;;;;;;4.25;2.70;;;;;;;47.65;8.68;101769.25;6222867;23;20407;-75
2022/03/27 12:37:27;;;;;;;4.63;3.05;;;;;;;47.80;8.50;101754.81;6218208;22;20502;-75
2022/03/27 12:39:53;;;;;;;2.88;2.63;;;;;;;48.04;8.58;101761.34;6222103;23;20009;-75
2022/03/27 12:42:49;;;;;;;2.90;2.60;;;;;;;47.97;9.06;101767.53;6247765;23;20716;-76
2022/03/27 12:45:23;;;;;;;4.78;2.85;;;;;;;47.65;8.71;101764.28;6228392;23;20014;-74
2022/03/27 12:47:50;;;;;;;3.30;2.47;;;;;;;47.33;9.01;101755.19;6248552;23;20422;-75
2022/03/27 12:50:28;;;;;;;3.38;3.08;;;;;;;47.05;8.96;101756.66;6248872;23;20023;-74
2022/03/27 12:52:57;;;;;;;4.00;3.10;;;;;;;47.16;8.92;101751.13;6220049;23;20521;-76
2022/03/27 12:55:26;;;;;;;7.13;4.65;;;;;;;46.30;8.86;101754.06;6245019;23;20000;-75
2022/03/27 12:57:53;;;;;;;3.95;3.15;;;;;;;46.13;9.30;101739.16;6218284;23;20008;-75
2022/03/27 13:00:20;;;;;;;4.40;4.00;;;;;;;46.24;9.10;101738.66;6247011;23;20000;-77
2022/03/27 13:02:49;;;;;;;11.02;7.57;;;;;;;47.27;8.26;101744.75;6195770;23;20000;-78
2022/03/27 13:06:07;;;;;;;5.43;4.00;;;;;;;49.15;7.58;101755.50;6247749;23;20050;-76
2022/03/27 13:09:03;;;;;;;11.88;8.20;;;;;;;50.91;6.65;101726.00;6202840;23;20008;-76
2022/03/27 13:11:29;;;;;;;10.77;8.43;;;;;;;51.54;6.29;101744.56;6250208;23;20300;-77
2022/03/27 13:14:57;;;;;;;;;;;;;;;;;;;;;
2022/03/27 13:21:55;;;;;;;;;;;;;;;;;;;;;
2022/03/27 13:32:19;;;;;;;3.90;3.22;;;;;;;51.09;6.32;101704.44;6053420;23;20010;-77
2022/03/27 13:34:48;;;;;;;4.75;2.92;;;;;;;51.44;6.09;101698.19;6041111;23;20006;-78
2022/03/27 13:45:35;;;;;;;2.17;1.98;;;;;;;52.46;5.67;101707.03;6104357;23;20061;-75
2022/03/27 13:58:37;;;;;;;5.15;4.35;;;;;;;51.50;5.94;101692.38;6132064;23;20070;-77
2022/03/27 14:02:23;;;;;;;;;;;;;;;;;;;;;
2022/03/27 14:09:13;;;;;;;3.67;3.08;;;;;;;51.58;6.12;101657.69;5969879;24;20020;-77